San Saba, Texas
Current Conditions -  °F | °C
As of 6:35 AM on Saturday 25 Oct 2014 (Local Time) from KLZZ Reporting Station
Clear Clear  
Wind Chill: 62°   Ceiling: Unl
Heat Index: 62°   Visibility: 10mi
Dew Point: 58°   Wind: 3mph
Humidity: 87%   Direction: 230°SW
Pressure: 30.13"   Gusts: NA
Location:  31.2°N, 98.72°W
Report Text: KLZZ 251135Z AUTO 23003KT 10SM CLR 17/14 A3013 RMK AO2 T01650144
Loading
Personal Weather Stations






























Interactive Weather Map New forecast layout! Learn more

10-Day Weather Forecast

Advertisements
Track Severe Weather on mobile